• Join FlightAware (Why Join?)
  • Login
  • US Flag 
08:11PM EDT


 

Airport Tracker/Info


-or-


 

Live Flight TrackerFlight Track Log ✈ GJS6314 ✈ 05-Jun-2013 ✈ KSTL - KLGA

Flight Track Log - Related Links

Times and Time Zones

All times are in EDT time to prevent confusion due to time zone crossing. See the GJS6314 flight status page for this flight to view local times or setup timezone preferences in your user account.

Time Position Orientation Groundspeed Altitude Reporting Facility
EDT Latitude Longitude Course Direction KTS MPH feet Rate Location/Type
04:40PM 38.7333 -90.3333 90° East 154 177 1,400  Level Gateway (St. Louis) TRACON
04:41PM 38.7333 -90.2667 90° East 208 239 3,500 2,040 Climbing Gateway (St. Louis) TRACON
04:42PM 38.7267 -90.2350 105° East 225 259 4,400 2,760 Climbing Kansas City Center
04:43PM 38.7306 -90.1444 87° East 249 287 7,600 3,060 Climbing Kansas City Center
04:44PM 38.7414 -90.0431 82° East 279 321 10,800 2,340 Climbing Kansas City Center
04:45PM 38.7522 -89.9294 83° East 316 364 12,500 1,800 Climbing Kansas City Center
04:46PM 38.7644 -89.8000 83° East 355 409 14,600 2,220 Climbing Kansas City Center
04:47PM 38.7803 -89.6344 83° East 388 447 17,200 2,220 Climbing Kansas City Center
04:48PM 38.7944 -89.4906 83° East 404 465 19,300 1,920 Climbing Kansas City Center
04:49PM 38.8142 -89.3317 81° East 419 482 21,200 1,800 Climbing Kansas City Center
04:50PM 38.8347 -89.1786 80° East 434 499 23,100 1,740 Climbing Kansas City Center
04:51PM 38.8531 -89.0236 81° East 440 506 24,800 1,500 Climbing Kansas City Center
04:52PM 38.8761 -88.8772 79° East 451 519 26,200 1,380 Climbing Kansas City Center
04:53PM 38.8950 -88.7164 81° East 456 525 27,700 1,440 Climbing Kansas City Center
04:54PM 38.9156 -88.5411 81° East 459 528 29,200 1,200 Climbing Kansas City Center
04:55PM 38.9492 -88.3789 75° East 466 536 30,200 1,140 Climbing Kansas City Center
04:56PM 39.0058 -88.1833 69° East 479 551 31,600 1,140 Climbing Kansas City Center
04:57PM 39.0397 -88.0553 71° East 480 552 32,500 1,200 Climbing Indianapolis Center
04:58PM 39.0856 -87.8903 70° East 484 557 34,000 1,260 Climbing Indianapolis Center
04:59PM 39.1303 -87.7278 70° East 483 556 35,200 1,140 Climbing Indianapolis Center
05:00PM 39.1844 -87.5314 70° East 482 555 36,400 840 Climbing Indianapolis Center
05:01PM 39.2292 -87.3658 71° East 485 558 37,000 240 Climbing Indianapolis Center
05:02PM 39.2739 -87.2000 71° East 487 560 37,000  Level Indianapolis Center
05:03PM 39.3178 -87.0308 71° East 493 567 37,000  Level Indianapolis Center
05:04PM 39.3628 -86.8622 71° East 494 568 37,000  Level Indianapolis Center
05:05PM 39.4081 -86.6939 71° East 494 568 37,000  Level Indianapolis Center
05:06PM 39.4522 -86.5214 72° East 502 578 37,000  Level Indianapolis Center
05:07PM 39.4967 -86.3517 71° East 497 572 37,000  Level Indianapolis Center
05:08PM 39.5497 -86.1456 71° East 501 577 37,000  Level Indianapolis Center
05:09PM 39.5942 -85.9747 71° East 499 574 37,000  Level Indianapolis Center
05:10PM 39.6397 -85.8036 71° East 499 574 37,000  Level Indianapolis Center
05:11PM 39.7011 -85.6431 64° Northeast 502 578 37,000  Level Indianapolis Center
05:12PM 39.7622 -85.4789 64° Northeast 501 577 37,000  Level Indianapolis Center
05:13PM 39.8244 -85.3133 64° Northeast 504 580 37,000  Level Indianapolis Center
05:15PM 39.8961 -85.1206 64° Northeast 504 580 37,000  Level Indianapolis Center
05:16PM 39.9578 -84.9542 64° Northeast 504 580 37,000 -60 Level Indianapolis Center
05:17PM 40.0189 -84.7875 64° Northeast 503 579 36,900  Descending Indianapolis Center
05:18PM 40.0800 -84.6203 64° Northeast 505 581 37,000  Climbing Indianapolis Center
05:19PM 40.1411 -84.4533 64° Northeast 505 581 37,000  Level Indianapolis Center
05:20PM 40.2022 -84.2847 65° Northeast 507 583 37,000  Level Indianapolis Center
05:21PM 40.2619 -84.1178 65° Northeast 501 577 37,000  Level Indianapolis Center
05:22PM 40.3283 -83.9528 62° Northeast 503 579 37,000  Level Indianapolis Center
05:23PM 40.3992 -83.7917 60° Northeast 504 580 37,000  Level Indianapolis Center
05:24PM 40.4814 -83.6061 60° Northeast 499 574 37,000  Level Indianapolis Center
05:25PM 40.5489 -83.4514 60° Northeast 486 559 37,000  Level Indianapolis Center
05:26PM 40.6181 -83.2956 60° Northeast 487 560 37,000  Level Indianapolis Center
05:27PM 40.6689 -83.1439 66° East 494 568 37,000  Level Indianapolis Center
05:28PM 40.6975 -82.9353 80° East 495 570 37,000  Level Indianapolis Center
05:29PM 40.7208 -82.7564 80° East 492 566 37,000  Level Indianapolis Center
05:30PM 40.7436 -82.5775 80° East 493 567 37,000  Level Indianapolis Center
05:31PM 40.7669 -82.3975 80° East 494 568 37,000  Level Indianapolis Center
05:32PM 40.7878 -82.2183 81° East 493 567 37,000  Level Indianapolis Center
05:33PM 40.8100 -82.0383 81° East 496 571 37,000  Level Indianapolis Center
05:34PM 40.8339 -81.8208 82° East 482 555 37,000  Level Cleveland Center
05:35PM 40.8564 -81.6428 80° East 482 555 37,000  Level Cleveland Center
05:36PM 40.8767 -81.4672 81° East 482 555 37,000  Level Cleveland Center
05:37PM 40.8967 -81.2919 81° East 482 555 37,000  Level Cleveland Center
05:38PM 40.9164 -81.1161 82° East 482 555 37,000  Level Cleveland Center
05:39PM 40.9358 -80.9733 80° East 487 560 37,000  Level Cleveland Center
05:40PM 40.9572 -80.7867 81° East 481 554 37,000  Level Cleveland Center
05:41PM 40.9761 -80.6078 82° East 482 555 37,000  Level Cleveland Center
05:42PM 40.9967 -80.4264 81° East 487 560 37,000  Level Cleveland Center
05:43PM 41.0153 -80.2475 82° East 487 560 37,000  Level Cleveland Center
05:44PM 41.0333 -80.0683 82° East 487 560 37,000  Level Cleveland Center
05:45PM 41.0511 -79.8892 82° East 487 560 37,000  Level Cleveland Center
05:46PM 41.0708 -79.7072 82° East 487 560 37,000  Level Cleveland Center
05:47PM 41.0881 -79.5253 83° East 487 560 37,000  Level Cleveland Center
05:48PM 41.1069 -79.3431 82° East 487 560 37,000  Level Cleveland Center
05:49PM 41.1256 -79.1442 83° East 487 560 37,000  Level Cleveland Center
05:50PM 41.1378 -78.9814 84° East 492 566 37,000  Level Cleveland Center
05:51PM 41.1581 -78.7906 82° East 505 581 37,000  Level Cleveland Center
05:52PM 41.1758 -78.6053 83° East 505 581 37,000 -720 Level Cleveland Center
05:53PM 41.1911 -78.4197 84° East 505 581 35,600 -1,680 Descending Cleveland Center
05:54PM 41.2056 -78.2644 83° East 507 583 34,100 -1,500 Descending New York Center
05:55PM 41.2069 -78.0769 89° East 512 589 33,000 -600 Descending New York Center
05:56PM 41.1847 -77.8925 99° East 512 589 33,000  Level New York Center
05:57PM 41.1603 -77.7081 100° East 512 589 33,000  Level New York Center
05:58PM 41.1358 -77.5181 100° East 512 589 33,000  Level New York Center
05:59PM 41.1117 -77.3531 101° East 506 582 33,000 -1,080 Level New York Center
06:00PM 41.0867 -77.1636 100° East 506 582 30,900 -2,400 Descending New York Center
06:01PM 41.0633 -76.9769 99° East 512 589 28,300 -2,580 Descending New York Center
06:02PM 41.0392 -76.7986 100° East 502 578 25,700 -2,580 Descending New York Center
06:03PM 41.0122 -76.6311 102° East 486 559 23,200 -2,460 Descending New York Center
06:04PM 40.9742 -76.4683 107° East 469 540 20,900 -2,280 Descending New York Center
06:05PM 40.9364 -76.3031 107° East 438 504 18,700 -1,800 Descending New York Center
06:06PM 40.9028 -76.1714 109° East 423 487 17,300 -1,500 Descending New York Center
06:07PM 40.8694 -76.0314 107° East 413 475 15,800 -1,620 Descending New York Center
06:08PM 40.8303 -75.8775 109° East 407 468 14,100 -1,380 Descending New York Center
06:09PM 40.7967 -75.7408 108° East 400 460 13,100 -600 Descending New York Center
06:10PM 40.7644 -75.6097 108° East 384 442 13,000 -60 Descending New York Center
06:11PM 40.7306 -75.4731 108° East 384 442 13,000  Level New York Center
06:12PM 40.7003 -75.3369 106° East 389 448 13,000 -360 Level New York Center
06:13PM 40.6764 -75.2011 103° East 389 448 12,300 -1,080 Descending New York Center
06:14PM 40.6281 -75.0994 122° Southeast 362 417 10,900 -1,200 Descending New York Center
06:15PM 40.5672 -74.9947 127° Southeast 367 422 10,000 -480 Descending New York Center
06:16PM 40.5317 -74.8806 112° Southeast 323 372 10,000  Level New York Center
06:17PM 40.5167 -74.8167 107° East 309 356 10,000  Level New York TRACON
06:18PM 40.4833 -74.7167 114° Southeast 309 356 10,000 -300 Level New York TRACON
06:19PM 40.4500 -74.6000 111° Southeast 305 351 9,500 -840 Descending New York TRACON
06:20PM 40.4167 -74.5000 114° Southeast 293 337 8,400 -840 Descending New York TRACON
06:20PM 40.4000 -74.4167 105° East 282 325 8,000 -240 Descending New York TRACON
06:21PM 40.4000 -74.3167 90° East 292 336 8,000  Level New York TRACON
06:22PM 40.4333 -74.2167 66° East 290 334 8,000 -240 Level New York TRACON
06:23PM 40.4833 -74.1667 37° Northeast 284 327 7,600 -900 Descending New York TRACON
06:24PM 40.5500 -74.1000 37° Northeast 280 322 6,300 -1,440 Descending New York TRACON
06:26PM 40.6333 -74.0500 24° Northeast 275 316 4,600 -1,200 Descending New York TRACON
06:27PM 40.7000 -74.0333 11° North 264 304 3,800 -840 Descending New York TRACON
06:27PM 40.7667 -74.0167 11° North 272 313 3,000 -420 Descending New York TRACON
06:28PM 40.8333 -73.9667 30° Northeast 265 305 3,000  Level New York TRACON
06:29PM 40.8833 -73.9167 37° Northeast 210 242 3,000  Level New York TRACON
06:30PM 40.9167 -73.8833 37° Northeast 194 223 3,000 -300 Level New York TRACON
06:31PM 40.9333 -73.8167 72° East 203 234 2,500 -540 Descending New York TRACON
06:32PM 40.9000 -73.8000 159° South 178 205 2,000 -540 Descending New York TRACON
06:33PM 40.8500 -73.8167 194° South 161 185 1,500 -600 Descending New York TRACON
06:34PM 40.8167 -73.8500 217° Southwest 129 148 800 -720 Descending New York TRACON
06:35PM 40.8000 -73.8667 217° Southwest 123 142 200 -720 Descending New York TRACON
06:37PM 40.7772 -73.8726 193° South  Level Estimated